Terminal Aerodrome Forecast
Issued by NWS

Home | Current Version | Previous Version | Text Only | Print | Product List | Glossary On
Versions: 1 2 3 4 5 6 7 8 9 10 11 12 13 14 15 16 17 18 19 20 21 22 23 24
000
FTUS43 KJKL 222300
TAFSME
TAF
KSME 222334Z 2300/2324 VRB03KT P6SM FEW045
     FM230500 VRB03KT 5SM BR SKC
     FM231200 25006KT P6SM VCSH BKN050
     FM231800 29005KT P6SM VCTS BKN040CB=

USA.gov is the U.S. government's official web portal to all federal, state and local government web resources and services.